createdAt,value
2022-11-16T00:00:44.395Z,7.96
2022-11-16T00:03:45.784Z,7.94
2022-11-16T00:06:48.815Z,7.95
2022-11-16T00:09:50.228Z,7.94
2022-11-16T00:12:51.585Z,7.95
2022-11-16T00:15:56.606Z,7.94
2022-11-16T00:18:58.479Z,7.93
2022-11-16T00:22:01.571Z,7.95
2022-11-16T00:25:02.916Z,7.96
2022-11-16T00:28:04.230Z,7.98
2022-11-16T00:31:06.423Z,7.95
2022-11-16T00:34:07.778Z,7.99
2022-11-16T00:37:09.148Z,7.96
2022-11-16T00:40:10.889Z,7.93
2022-11-16T00:43:12.257Z,7.92
2022-11-16T00:46:13.621Z,7.92
2022-11-16T00:49:14.993Z,7.91
2022-11-16T00:52:16.360Z,8.00
2022-11-16T00:55:17.817Z,8.01
2022-11-16T00:58:19.137Z,8.05
2022-11-16T01:01:20.566Z,8.02
2022-11-16T01:04:21.948Z,8.02
2022-11-16T01:07:23.283Z,8.03
2022-11-16T01:10:24.946Z,8.09
2022-11-16T01:13:26.287Z,8.09
2022-11-16T01:16:27.645Z,8.12
2022-11-16T01:19:29.007Z,8.12
2022-11-16T01:22:30.413Z,8.10
2022-11-16T01:25:31.760Z,8.09
2022-11-16T01:28:33.254Z,8.10
2022-11-16T01:31:34.882Z,8.08
2022-11-16T01:34:36.239Z,8.22
2022-11-16T01:37:37.552Z,8.26
2022-11-16T01:40:39.137Z,8.26
2022-11-16T01:43:56.889Z,8.22
2022-11-16T01:46:58.593Z,8.27
2022-11-16T01:50:02.660Z,8.26
2022-11-16T01:53:04.467Z,8.11
2022-11-16T01:56:05.903Z,8.08
2022-11-16T01:59:07.210Z,8.07
2022-11-16T02:02:08.566Z,8.08
2022-11-16T02:05:10.439Z,8.11
2022-11-16T02:08:34.533Z,8.13
2022-11-16T02:11:45.246Z,8.15
2022-11-16T02:14:59.137Z,8.21
2022-11-16T02:18:19.370Z,8.21
2022-11-16T02:21:22.982Z,8.34
2022-11-16T02:24:35.699Z,8.41
2022-11-16T02:27:42.266Z,8.38
2022-11-16T02:30:45.042Z,8.36
2022-11-16T02:33:46.664Z,8.39
2022-11-16T02:36:48.545Z,8.38
2022-11-16T02:39:51.374Z,8.31
2022-11-16T02:42:53.722Z,8.26
2022-11-16T02:45:55.649Z,8.24
2022-11-16T02:48:57.632Z,8.25
2022-11-16T02:51:58.984Z,8.25
2022-11-16T02:55:00.378Z,8.24
2022-11-16T02:58:02.660Z,8.24
2022-11-16T03:01:08.542Z,8.25
2022-11-16T03:04:33.239Z,8.33
2022-11-16T03:07:36.628Z,8.34
2022-11-16T03:10:57.181Z,8.33
2022-11-16T03:14:17.040Z,8.29
2022-11-16T03:17:27.500Z,8.27
2022-11-16T03:20:29.965Z,8.24
2022-11-16T03:23:31.308Z,8.22
2022-11-16T03:26:34.737Z,8.23
2022-11-16T03:29:40.417Z,8.33
2022-11-16T03:32:43.610Z,8.28
2022-11-16T03:35:49.587Z,8.28
2022-11-16T03:38:51.062Z,8.27
2022-11-16T03:41:52.436Z,8.26
2022-11-16T03:44:53.757Z,8.29
2022-11-16T03:47:55.146Z,8.31
2022-11-16T03:50:56.641Z,8.39
2022-11-16T03:53:58.111Z,8.44
2022-11-16T03:56:59.441Z,8.37
2022-11-16T04:00:00.869Z,8.35
2022-11-16T04:03:02.274Z,8.42
2022-11-16T04:06:22.325Z,8.37
2022-11-16T04:09:42.312Z,8.36
2022-11-16T04:13:02.327Z,8.40
2022-11-16T04:16:22.525Z,8.44
2022-11-16T04:19:42.715Z,8.50
2022-11-16T04:23:06.509Z,8.48
2022-11-16T04:26:08.336Z,8.47
2022-11-16T04:29:09.712Z,8.44
2022-11-16T04:32:29.870Z,8.41
2022-11-16T04:35:49.807Z,8.39
2022-11-16T04:38:51.164Z,8.39
2022-11-16T04:42:11.354Z,8.40
2022-11-16T04:45:31.219Z,8.40
2022-11-16T04:48:32.829Z,8.42
2022-11-16T04:51:34.377Z,8.41
2022-11-16T04:54:35.815Z,8.40
2022-11-16T04:57:37.117Z,8.39
2022-11-16T05:00:38.474Z,8.44
2022-11-16T05:03:39.782Z,8.49
2022-11-16T05:06:41.145Z,8.47
2022-11-16T05:09:43.299Z,8.48
2022-11-16T05:12:44.692Z,8.47
2022-11-16T05:15:46.054Z,8.49
2022-11-16T05:19:07.358Z,8.46
2022-11-16T05:22:08.718Z,8.45
2022-11-16T05:25:10.580Z,8.46
2022-11-16T05:28:11.987Z,8.44
2022-11-16T05:31:13.362Z,8.41
2022-11-16T05:34:14.718Z,8.41
2022-11-16T05:37:16.162Z,8.42
2022-11-16T05:40:17.519Z,8.39
2022-11-16T05:43:18.837Z,8.46
2022-11-16T05:46:20.247Z,8.46
2022-11-16T05:49:21.578Z,8.47
2022-11-16T05:52:22.931Z,8.47
2022-11-16T05:55:24.289Z,8.53
2022-11-16T05:58:25.625Z,8.53
2022-11-16T06:01:26.967Z,8.53
2022-11-16T06:04:28.360Z,8.54
2022-11-16T06:07:29.832Z,8.51
2022-11-16T06:10:31.272Z,8.62
2022-11-16T06:13:32.600Z,8.66
2022-11-16T06:16:33.969Z,8.72
2022-11-16T06:19:35.403Z,8.77
2022-11-16T06:22:36.719Z,8.74
2022-11-16T06:25:38.398Z,8.74
2022-11-16T06:28:39.721Z,8.73
2022-11-16T06:31:41.062Z,8.73
2022-11-16T06:34:42.409Z,8.71
2022-11-16T06:37:43.726Z,8.70
2022-11-16T06:40:46.034Z,8.69
2022-11-16T06:43:47.377Z,8.73
2022-11-16T06:46:48.697Z,8.70
2022-11-16T06:49:50.011Z,8.68
2022-11-16T06:52:51.322Z,8.61
2022-11-16T06:55:52.664Z,8.57
2022-11-16T06:58:55.491Z,8.48
2022-11-16T07:01:56.934Z,8.52
2022-11-16T07:05:03.329Z,8.53
2022-11-16T07:08:05.330Z,8.58
2022-11-16T07:11:07.125Z,8.60
2022-11-16T07:14:08.622Z,8.63
2022-11-16T07:17:10.020Z,8.60
2022-11-16T07:20:12.081Z,8.55
2022-11-16T07:23:14.299Z,8.52
2022-11-16T07:26:15.802Z,8.51
2022-11-16T07:29:17.169Z,8.52
2022-11-16T07:32:18.538Z,8.53
2022-11-16T07:35:20.021Z,8.56
2022-11-16T07:38:21.445Z,8.59
2022-11-16T07:41:22.803Z,8.64
2022-11-16T07:44:24.215Z,8.63
2022-11-16T07:47:25.553Z,8.69
2022-11-16T07:50:26.921Z,8.71
2022-11-16T07:53:28.320Z,8.74
2022-11-16T07:56:29.649Z,8.71
2022-11-16T07:59:31.051Z,8.76
2022-11-16T08:02:32.371Z,8.70
2022-11-16T08:05:33.749Z,8.92
2022-11-16T08:08:35.405Z,9.02
2022-11-16T08:11:37.049Z,9.15
2022-11-16T08:14:38.420Z,9.17
2022-11-16T08:17:39.777Z,9.04
2022-11-16T08:20:41.178Z,8.94
2022-11-16T08:23:42.614Z,9.09
2022-11-16T08:26:43.941Z,9.22
2022-11-16T08:29:45.304Z,9.24
2022-11-16T08:32:46.859Z,9.26
2022-11-16T08:35:48.298Z,9.29
2022-11-16T08:38:50.062Z,9.49
2022-11-16T08:41:51.481Z,9.59
2022-11-16T08:44:52.859Z,9.48
2022-11-16T08:48:03.390Z,9.56
2022-11-16T08:51:18.136Z,10.49
2022-11-16T08:54:20.509Z,10.82
2022-11-16T08:57:21.894Z,10.84
2022-11-16T09:00:23.305Z,11.44
2022-11-16T09:03:24.643Z,10.98
2022-11-16T09:06:26.303Z,13.18
2022-11-16T09:09:27.646Z,13.81
2022-11-16T09:12:28.972Z,14.33
2022-11-16T09:15:30.355Z,14.01
2022-11-16T09:18:32.077Z,16.46
2022-11-16T09:21:36.061Z,15.56
2022-11-16T09:24:37.663Z,16.76
2022-11-16T09:27:39.088Z,16.03
2022-11-16T09:30:40.477Z,15.64
2022-11-16T09:33:41.851Z,15.08
2022-11-16T09:36:43.185Z,13.39
2022-11-16T09:39:44.546Z,15.28
2022-11-16T09:42:52.701Z,15.07
2022-11-16T09:45:57.081Z,15.02
2022-11-16T09:48:58.644Z,14.11
2022-11-16T09:52:00.658Z,15.37
2022-11-16T09:55:03.868Z,16.96
2022-11-16T09:58:08.137Z,16.87
2022-11-16T10:01:23.508Z,15.55
2022-11-16T10:04:27.996Z,15.28
2022-11-16T10:07:37.574Z,14.06
2022-11-16T10:10:39.896Z,13.94
2022-11-16T10:13:41.185Z,14.42
2022-11-16T10:16:42.489Z,13.54
2022-11-16T10:19:51.359Z,14.49
2022-11-16T10:22:59.692Z,13.97
2022-11-16T10:26:22.229Z,14.72
2022-11-16T10:29:56.531Z,15.43
2022-11-16T10:32:59.537Z,14.40
2022-11-16T10:36:00.893Z,13.83
2022-11-16T10:39:02.647Z,13.93
2022-11-16T10:42:07.721Z,13.65
2022-11-16T10:45:17.749Z,15.34
2022-11-16T10:48:23.813Z,13.60
2022-11-16T10:51:25.229Z,15.16
2022-11-16T10:54:26.553Z,13.42
2022-11-16T10:57:38.145Z,13.12
2022-11-16T11:00:49.361Z,12.63
2022-11-16T11:03:50.807Z,12.54
2022-11-16T11:06:53.051Z,12.82
2022-11-16T11:09:54.480Z,12.26
2022-11-16T11:13:05.006Z,11.99
2022-11-16T11:16:13.287Z,11.95
2022-11-16T11:19:18.567Z,12.11
2022-11-16T11:22:19.917Z,11.74
2022-11-16T11:25:24.283Z,11.88
2022-11-16T11:28:30.022Z,12.06
2022-11-16T11:31:35.643Z,11.86
2022-11-16T11:34:41.779Z,11.73
2022-11-16T11:37:43.140Z,11.77
2022-11-16T11:40:54.389Z,11.72
2022-11-16T11:44:05.796Z,11.78
2022-11-16T11:50:44.263Z,11.56
2022-11-16T11:53:47.053Z,11.91
2022-11-16T11:56:48.415Z,11.89
2022-11-16T11:59:50.608Z,11.67
2022-11-16T12:03:01.501Z,11.59
2022-11-16T12:06:08.425Z,11.60
2022-11-16T12:09:12.810Z,11.47
2022-11-16T12:12:33.011Z,11.39
2022-11-16T12:15:34.341Z,11.45
2022-11-16T12:18:46.291Z,11.69
2022-11-16T12:21:50.598Z,11.88
2022-11-16T12:25:11.237Z,11.80
2022-11-16T12:28:15.637Z,11.66
2022-11-16T12:31:16.969Z,12.07
2022-11-16T12:34:37.132Z,12.34
2022-11-16T12:37:39.513Z,12.21
2022-11-16T12:40:51.076Z,12.17
2022-11-16T12:47:00.862Z,11.87
2022-11-16T12:50:08.713Z,11.78
2022-11-16T12:53:13.282Z,11.96
2022-11-16T12:56:17.738Z,11.72
2022-11-16T12:59:25.105Z,11.49
2022-11-16T13:02:45.359Z,11.59
2022-11-16T13:05:46.697Z,11.73
2022-11-16T13:08:51.387Z,11.63
2022-11-16T13:11:57.380Z,11.56
2022-11-16T13:14:58.778Z,11.41
2022-11-16T13:18:00.633Z,11.34
2022-11-16T13:21:11.393Z,11.36
2022-11-16T13:24:31.566Z,11.23
2022-11-16T13:27:35.936Z,11.29
2022-11-16T13:30:43.994Z,11.28
2022-11-16T13:33:50.750Z,11.41
2022-11-16T13:36:52.808Z,11.37
2022-11-16T13:39:57.189Z,11.41
2022-11-16T13:43:04.599Z,11.43
2022-11-16T13:46:05.958Z,11.30
2022-11-16T13:49:18.423Z,11.19
2022-11-16T13:52:25.021Z,11.15
2022-11-16T13:55:33.724Z,11.13
2022-11-16T13:58:35.750Z,10.95
2022-11-16T14:01:56.800Z,11.00
2022-11-16T14:05:01.752Z,10.90
2022-11-16T14:08:18.391Z,10.80
2022-11-16T14:11:28.888Z,10.75
2022-11-16T14:14:49.013Z,10.68
2022-11-16T14:17:53.426Z,10.62
2022-11-16T14:20:56.061Z,10.59
2022-11-16T14:23:57.373Z,10.57
2022-11-16T14:27:15.669Z,10.56
2022-11-16T14:30:22.858Z,10.44
2022-11-16T14:33:26.816Z,10.28
2022-11-16T14:36:41.709Z,10.28
2022-11-16T14:39:43.509Z,10.25
2022-11-16T14:43:09.431Z,10.19
2022-11-16T14:46:09.610Z,10.16
2022-11-16T14:49:14.411Z,10.12
2022-11-16T14:52:16.335Z,9.94
2022-11-16T14:55:18.556Z,9.78
2022-11-16T14:58:20.392Z,9.66
2022-11-16T15:01:23.222Z,9.56
2022-11-16T15:04:24.994Z,9.48
2022-11-16T15:07:26.412Z,9.41
2022-11-16T15:10:28.091Z,9.26
2022-11-16T15:13:29.434Z,9.10
2022-11-16T15:16:30.758Z,8.99
2022-11-16T15:19:32.155Z,8.95
2022-11-16T15:22:39.542Z,8.84
2022-11-16T15:25:44.976Z,8.80
2022-11-16T15:28:50.019Z,8.72
2022-11-16T15:31:51.729Z,8.61
2022-11-16T15:34:53.316Z,8.38
2022-11-16T15:38:11.963Z,8.22
2022-11-16T15:41:13.310Z,8.11
2022-11-16T15:44:19.031Z,8.00
2022-11-16T15:47:20.542Z,7.96
2022-11-16T15:50:23.290Z,7.83
2022-11-16T15:53:35.411Z,7.80
2022-11-16T15:56:37.827Z,7.68
2022-11-16T15:59:39.157Z,7.54
2022-11-16T16:02:40.499Z,7.48
2022-11-16T16:05:42.042Z,7.45
2022-11-16T16:08:45.103Z,7.39
2022-11-16T16:11:46.538Z,7.33
2022-11-16T16:14:50.856Z,7.36
2022-11-16T16:17:55.630Z,7.27
2022-11-16T16:20:56.973Z,7.14
2022-11-16T16:23:58.304Z,7.10
2022-11-16T16:26:59.717Z,7.01
2022-11-16T16:30:02.827Z,7.02
2022-11-16T16:33:04.494Z,6.91
2022-11-16T16:36:06.086Z,6.76
2022-11-16T16:39:07.416Z,6.75
2022-11-16T16:42:12.609Z,6.68
2022-11-16T16:45:14.926Z,6.62
2022-11-16T16:48:16.282Z,6.57
2022-11-16T16:51:17.693Z,6.57
2022-11-16T16:54:19.053Z,6.46
2022-11-16T16:57:20.433Z,6.40
2022-11-16T17:00:21.814Z,6.37
2022-11-16T17:03:23.238Z,6.38
2022-11-16T17:06:31.606Z,6.36
2022-11-16T17:09:33.230Z,6.38
2022-11-16T17:12:34.704Z,6.38
2022-11-16T17:15:36.052Z,6.37
2022-11-16T17:18:37.385Z,6.33
2022-11-16T17:21:38.749Z,6.34
2022-11-16T17:24:40.166Z,6.31
2022-11-16T17:27:41.476Z,6.27
2022-11-16T17:30:42.808Z,6.20
2022-11-16T17:33:44.174Z,6.16
2022-11-16T17:36:45.664Z,6.08
2022-11-16T17:39:47.030Z,6.06
2022-11-16T17:42:48.495Z,6.02
2022-11-16T17:45:49.874Z,5.98
2022-11-16T17:48:51.227Z,5.88
2022-11-16T17:51:52.617Z,5.81
2022-11-16T17:54:53.951Z,5.73
2022-11-16T17:57:55.334Z,5.69
2022-11-16T18:00:56.934Z,5.65
2022-11-16T18:03:59.213Z,5.59
2022-11-16T18:07:01.253Z,5.65
2022-11-16T18:10:02.664Z,5.59
2022-11-16T18:13:04.421Z,5.53
2022-11-16T18:16:06.207Z,5.48
2022-11-16T18:19:07.585Z,5.35
2022-11-16T18:22:08.941Z,5.29
2022-11-16T18:25:10.776Z,5.33
2022-11-16T18:28:12.331Z,5.25
2022-11-16T18:31:15.287Z,5.19
2022-11-16T18:34:16.846Z,5.11
2022-11-16T18:37:18.224Z,5.06
2022-11-16T18:40:19.587Z,5.08
2022-11-16T18:43:21.534Z,5.16
2022-11-16T18:46:23.939Z,5.09
2022-11-16T18:49:25.310Z,4.97
2022-11-16T18:52:26.689Z,4.81
2022-11-16T18:55:28.021Z,4.80
2022-11-16T18:58:49.750Z,4.86
2022-11-16T19:01:50.712Z,4.83
2022-11-16T19:04:52.168Z,4.74
2022-11-16T19:07:53.564Z,4.71
2022-11-16T19:10:55.014Z,4.66
2022-11-16T19:13:57.121Z,4.56
2022-11-16T19:16:59.261Z,4.58
2022-11-16T19:20:00.603Z,4.45
2022-11-16T19:23:02.044Z,4.47
2022-11-16T19:26:04.822Z,4.44
2022-11-16T19:29:06.820Z,4.46
2022-11-16T19:32:08.219Z,4.50
2022-11-16T19:35:11.854Z,4.44
2022-11-16T19:38:13.191Z,4.35
2022-11-16T19:41:14.922Z,4.25
2022-11-16T19:44:16.239Z,4.26
2022-11-16T19:47:18.775Z,4.31
2022-11-16T19:50:20.099Z,4.27
2022-11-16T19:53:21.441Z,4.29
2022-11-16T19:56:22.982Z,4.34
2022-11-16T19:59:24.359Z,4.48
2022-11-16T20:02:25.791Z,4.49
2022-11-16T20:05:29.942Z,4.49
2022-11-16T20:08:31.281Z,4.49
2022-11-16T20:11:34.109Z,4.46
2022-11-16T20:14:35.583Z,4.47
2022-11-16T20:17:36.982Z,4.50
2022-11-16T20:20:38.334Z,4.52
2022-11-16T20:23:39.654Z,4.56
2022-11-16T20:26:41.723Z,4.51
2022-11-16T20:29:43.114Z,4.55
2022-11-16T20:32:44.540Z,4.56
2022-11-16T20:35:45.911Z,4.57
2022-11-16T20:38:47.268Z,4.60
2022-11-16T20:41:48.797Z,4.58
2022-11-16T20:44:50.179Z,4.65
2022-11-16T20:47:51.544Z,4.68
2022-11-16T20:50:53.714Z,4.77
2022-11-16T20:53:55.101Z,4.80
2022-11-16T20:56:56.446Z,4.78
2022-11-16T20:59:57.813Z,4.75
2022-11-16T21:02:59.156Z,4.77
2022-11-16T21:06:01.119Z,4.77
2022-11-16T21:09:02.726Z,4.77
2022-11-16T21:12:22.982Z,4.78
2022-11-16T21:15:24.342Z,4.81
2022-11-16T21:18:30.588Z,4.80
2022-11-16T21:21:32.266Z,4.86
2022-11-16T21:24:34.679Z,4.87
2022-11-16T21:27:36.053Z,4.90
2022-11-16T21:30:37.435Z,4.95
2022-11-16T21:33:38.777Z,4.94
2022-11-16T21:36:40.258Z,4.99
2022-11-16T21:39:41.570Z,5.03
2022-11-16T21:42:42.920Z,5.04
2022-11-16T21:45:44.616Z,5.05
2022-11-16T21:48:47.755Z,5.10
2022-11-16T21:51:49.144Z,5.11
2022-11-16T21:54:56.106Z,5.10
2022-11-16T21:58:00.676Z,5.09
2022-11-16T22:01:02.311Z,5.14
2022-11-16T22:04:22.216Z,5.08
2022-11-16T22:07:38.610Z,5.15
2022-11-16T22:10:40.030Z,5.17
2022-11-16T22:13:41.353Z,5.20
2022-11-16T22:16:42.691Z,5.17
2022-11-16T22:19:44.031Z,5.20
2022-11-16T22:22:45.367Z,5.24
2022-11-16T22:25:46.772Z,5.25
2022-11-16T22:28:48.348Z,5.29
2022-11-16T22:31:49.711Z,5.31
2022-11-16T22:34:51.373Z,5.33
2022-11-16T22:37:52.717Z,5.34
2022-11-16T22:40:54.843Z,5.38
2022-11-16T22:43:56.206Z,5.30
2022-11-16T22:46:57.617Z,5.24
2022-11-16T22:49:58.969Z,5.31
2022-11-16T22:53:00.306Z,5.34
2022-11-16T22:56:05.421Z,5.36
2022-11-16T22:59:06.797Z,5.37
2022-11-16T23:02:08.507Z,5.38
2022-11-16T23:05:09.850Z,5.41
2022-11-16T23:08:11.177Z,5.42
2022-11-16T23:11:35.462Z,5.45
2022-11-16T23:14:55.576Z,5.47
2022-11-16T23:17:56.991Z,5.54
2022-11-16T23:21:17.007Z,5.52
2022-11-16T23:24:37.099Z,5.55
2022-11-16T23:27:41.129Z,5.62
2022-11-16T23:30:42.542Z,5.62
2022-11-16T23:33:43.886Z,5.64
2022-11-16T23:36:45.314Z,5.60
2022-11-16T23:39:46.644Z,5.64
2022-11-16T23:43:06.834Z,5.62
2022-11-16T23:46:08.183Z,5.64
2022-11-16T23:49:09.686Z,5.70
2022-11-16T23:52:11.132Z,5.71
2022-11-16T23:55:12.464Z,5.75
2022-11-16T23:58:14.035Z,5.70
